Time;durP1;ratioP1;P1;durP2;ratioP2;P2;SDS_P1;SDS_P2;PMS_P1;PMS_P2;Temp;Humidity;BMP_temperature;BMP_pressure;BME280_temperature;BME280_humidity;BME280_pressure;Samples;Min_cycle;Max_cycle;Signal;HPM_P1;HPM_P2
2022/04/03 11:21:49;;;;;;;6.72;6.10;;;;;;;18.41;25.95;100724.22;5087688;27;2087945;-71
2022/04/03 11:24:17;;;;;;;6.50;5.80;;;;;;;16.02;27.99;100731.25;5123821;27;20385;-68
2022/04/03 11:26:44;;;;;;;8.43;6.40;;;;;;;15.86;28.45;100735.19;5145362;27;20507;-67
2022/04/03 11:29:12;;;;;;;7.18;6.45;;;;;;;15.79;28.40;100739.69;5144114;27;20401;-67
2022/04/03 11:32:13;;;;;;;7.05;6.35;;;;;;;15.57;28.45;100744.31;5081101;27;20469;-67
2022/04/03 11:34:42;;;;;;;6.87;6.17;;;;;;;15.55;28.28;100753.56;4949010;27;32484;-66
2022/04/03 11:37:24;;;;;;;7.68;6.40;;;;;;;14.96;28.69;100744.31;4697900;28;9719576;-64
2022/04/03 11:39:58;;;;;;;7.47;6.60;;;;;;;14.88;29.33;100750.66;4961669;28;2305647;-67
2022/04/03 11:42:27;;;;;;;7.40;6.00;;;;;;;14.90;29.39;100765.44;4809277;28;5103568;-67
2022/04/03 11:44:55;;;;;;;6.45;5.68;;;;;;;14.29;29.30;100754.53;5029262;28;20426;-68
2022/04/03 11:47:25;;;;;;;5.63;4.93;;;;;;;13.81;29.44;100760.50;5033382;28;20447;-69
2022/04/03 11:50:07;;;;;;;6.00;5.40;;;;;;;13.76;29.97;100755.72;5021789;28;20489;-68
2022/04/03 11:52:38;;;;;;;6.67;5.60;;;;;;;13.47;30.13;100754.00;5015251;28;20500;-68
2022/04/03 11:55:10;;;;;;;6.63;6.03;;;;;;;13.33;30.92;100758.34;5026404;28;20435;-70
2022/04/03 11:57:37;;;;;;;6.18;5.57;;;;;;;13.32;30.90;100769.97;5037755;28;20477;-70
2022/04/03 12:00:08;;;;;;;6.13;5.53;;;;;;;13.55;30.69;100779.69;5026672;28;20514;-69
2022/04/03 12:02:37;;;;;;;5.63;4.97;;;;;;;13.83;30.04;100773.59;5031270;28;20798;-69
2022/04/03 12:05:04;;;;;;;6.80;6.10;;;;;;;13.84;30.38;100777.94;5046604;28;20790;-70
2022/04/03 12:07:31;;;;;;;7.00;6.30;;;;;;;13.63;30.49;100779.56;5045589;28;20423;-69
2022/04/03 12:09:58;;;;;;;7.97;6.10;;;;;;;13.34;31.19;100767.13;5038809;28;20767;-69
2022/04/03 12:12:25;;;;;;;7.20;6.32;;;;;;;13.47;30.79;100780.63;5023982;28;20494;-70
2022/04/03 12:14:52;;;;;;;6.53;5.90;;;;;;;13.00;30.88;100774.69;5024081;28;20850;-70
2022/04/03 12:17:20;;;;;;;6.50;5.78;;;;;;;12.99;31.19;100780.19;5023869;28;20426;-70
2022/04/03 12:19:50;;;;;;;8.35;6.78;;;;;;;13.48;30.72;100776.13;5024648;28;20419;-70
2022/04/03 12:22:18;;;;;;;7.53;6.78;;;;;;;13.55;30.79;100777.03;5024881;28;20422;-69
2022/04/03 12:24:47;;;;;;;6.88;6.10;;;;;;;13.75;30.29;100763.91;5025235;28;20940;-69
2022/04/03 12:27:19;;;;;;;6.47;5.88;;;;;;;13.82;30.60;100763.97;5025898;28;20921;-72
2022/04/03 12:29:47;;;;;;;7.25;6.43;;;;;;;14.04;30.38;100772.78;5026065;28;20957;-71
2022/04/03 12:32:17;;;;;;;7.45;6.72;;;;;;;14.12;30.36;100778.81;5045894;28;20505;-72
2022/04/03 12:34:47;;;;;;;6.93;6.22;;;;;;;14.19;30.12;100760.22;5045605;28;20421;-72
2022/04/03 12:37:17;;;;;;;7.75;6.18;;;;;;;14.04;30.42;100764.78;5044520;28;21524;-72
2022/04/03 12:39:45;;;;;;;7.53;6.70;;;;;;;14.17;30.34;100762.25;5045435;28;20497;-72
2022/04/03 12:42:24;;;;;;;7.60;6.72;;;;;;;13.83;30.89;100768.28;5039402;28;20987;-72
2022/04/03 12:44:57;;;;;;;7.50;6.30;;;;;;;13.67;30.78;100756.06;5032105;28;20497;-72
2022/04/03 12:47:33;;;;;;;7.45;6.68;;;;;;;13.41;31.11;100776.03;5031925;28;20509;-72
2022/04/03 12:50:27;;;;;;;7.10;6.35;;;;;;;12.90;31.72;100766.16;5032308;28;20517;-72
2022/04/03 12:52:58;;;;;;;6.60;6.00;;;;;;;12.94;31.79;100777.25;5032317;28;20437;-72
2022/04/03 12:55:41;;;;;;;6.90;6.30;;;;;;;12.81;31.94;100764.59;5031878;28;20991;-72
2022/04/03 12:58:26;;;;;;;8.55;6.70;;;;;;;12.97;31.93;100764.41;5031851;28;20414;-72
2022/04/03 13:00:56;;;;;;;7.32;6.53;;;;;;;12.88;32.24;100775.34;5032101;28;20414;-72
2022/04/03 13:03:27;;;;;;;7.77;6.77;;;;;;;12.78;32.36;100776.44;5031678;28;20425;-72
2022/04/03 13:05:59;;;;;;;7.77;6.30;;;;;;;12.37;32.64;100781.31;5011772;28;20446;-71
2022/04/03 13:08:27;;;;;;;7.55;6.43;;;;;;;12.48;31.76;100772.06;5031245;28;20493;-72
2022/04/03 13:10:56;;;;;;;6.88;6.18;;;;;;;12.62;31.54;100772.13;4961190;28;20446;-71
2022/04/03 13:13:25;;;;;;;6.57;5.97;;;;;;;12.74;31.05;100767.16;5015716;28;20449;-71
2022/04/03 13:15:52;;;;;;;6.53;5.80;;;;;;;12.96;30.25;100775.22;5031828;28;20453;-72
2022/04/03 13:18:20;;;;;;;6.72;5.70;;;;;;;12.86;30.56;100772.88;5031769;28;20418;-71
2022/04/03 13:20:51;;;;;;;6.50;5.90;;;;;;;12.87;30.39;100777.16;5032180;28;20419;-71
2022/04/03 13:23:18;;;;;;;6.53;5.90;;;;;;;13.02;30.52;100785.16;5031568;28;20451;-70
2022/04/03 13:25:47;;;;;;;6.60;5.55;;;;;;;13.06;30.77;100786.44;5031754;28;20410;-69
2022/04/03 13:28:14;;;;;;;8.02;7.00;;;;;;;12.95;31.02;100786.91;5031415;28;20871;-70
2022/04/03 13:30:43;;;;;;;13.93;12.45;;;;;;;12.98;31.70;100789.16;5031173;28;20740;-71
2022/04/03 13:33:10;;;;;;;7.70;6.93;;;;;;;12.79;32.22;100790.56;5031585;28;20414;-70
2022/04/03 13:35:38;;;;;;;8.60;7.35;;;;;;;12.85;32.00;100800.47;5031582;28;20414;-70
2022/04/03 13:38:06;;;;;;;8.85;8.02;;;;;;;12.92;32.02;100797.91;5031286;28;20418;-71
2022/04/03 13:40:33;;;;;;;8.98;7.78;;;;;;;12.86;31.88;100794.16;5031042;28;20414;-70
2022/04/03 13:43:02;;;;;;;7.50;6.53;;;;;;;12.76;31.80;100802.38;5030140;28;21248;-70
2022/04/03 13:48:14;;;;;;;8.43;7.00;;;;;;;12.47;32.09;100812.97;5031180;28;20414;-70
2022/04/03 13:50:42;;;;;;;7.95;7.15;;;;;;;12.43;32.21;100804.53;5031182;28;20415;-71
2022/04/03 13:53:09;;;;;;;7.78;6.90;;;;;;;12.41;32.23;100809.22;5030751;28;20418;-71
2022/04/03 13:55:36;;;;;;;9.18;6.97;;;;;;;12.41;32.07;100807.38;5030637;28;20505;-71
2022/04/03 13:58:04;;;;;;;8.90;7.30;;;;;;;12.32;32.22;100813.78;5030793;28;20410;-71
2022/04/03 14:00:31;;;;;;;8.63;7.73;;;;;;;12.46;32.05;100812.16;5031468;28;20535;-71
2022/04/03 14:02:58;;;;;;;8.67;7.40;;;;;;;12.57;32.36;100817.03;5030552;28;20780;-70
2022/04/03 14:05:25;;;;;;;7.35;6.63;;;;;;;12.24;31.77;100816.47;5015656;28;20406;-71
2022/04/03 14:07:52;;;;;;;8.75;7.85;;;;;;;12.34;31.71;100819.72;5030783;28;20429;-71
2022/04/03 14:10:19;;;;;;;9.75;7.55;;;;;;;12.37;31.77;100829.16;5030539;28;20513;-70
2022/04/03 14:12:46;;;;;;;8.07;7.25;;;;;;;12.26;32.22;100834.91;5030704;28;20433;-70
2022/04/03 14:15:15;;;;;;;7.93;7.10;;;;;;;12.11;31.99;100841.00;5030562;28;20789;-70
2022/04/03 14:17:42;;;;;;;9.07;7.63;;;;;;;12.05;32.18;100850.50;5030407;28;20413;-71
2022/04/03 14:20:09;;;;;;;9.15;7.90;;;;;;;12.06;32.46;100840.69;5030546;28;20422;-70
2022/04/03 14:22:37;;;;;;;9.07;7.22;;;;;;;11.91;32.89;100843.28;5030440;28;20418;-70
2022/04/03 14:25:22;;;;;;;8.80;7.60;;;;;;;11.60;32.50;100840.63;5030180;28;20907;-70
2022/04/03 14:27:49;;;;;;;9.23;7.65;;;;;;;11.63;32.90;100848.22;5030337;28;20493;-70
2022/04/03 14:30:17;;;;;;;10.85;8.38;;;;;;;11.85;33.66;100844.78;5029904;28;20869;-65
2022/04/03 14:32:46;;;;;;;10.27;7.72;;;;;;;11.70;33.66;100857.13;5029951;28;20790;-61
2022/04/03 14:35:14;;;;;;;30.05;8.77;;;;;;;11.64;33.43;100850.69;5030268;28;20469;-60
2022/04/03 14:37:42;;;;;;;9.25;8.13;;;;;;;11.71;33.20;100866.78;5030256;28;20422;-61
2022/04/03 14:40:10;;;;;;;9.20;7.95;;;;;;;11.88;32.90;100861.38;5031093;28;20414;-59
2022/04/03 14:42:37;;;;;;;9.00;8.10;;;;;;;11.88;34.07;100867.50;5030210;28;20422;-58
2022/04/03 14:45:05;;;;;;;8.70;7.63;;;;;;;11.88;33.10;100866.69;5029724;28;20520;-57
2022/04/03 14:47:33;;;;;;;8.15;7.35;;;;;;;11.82;33.59;100873.53;5029986;28;20414;-58
2022/04/03 14:50:04;;;;;;;8.85;7.95;;;;;;;11.89;33.25;100879.78;5028066;28;20872;-59
2022/04/03 14:52:31;;;;;;;11.05;9.38;;;;;;;12.03;32.99;100889.72;5029598;28;20492;-57
2022/04/03 14:54:59;;;;;;;10.40;8.25;;;;;;;11.84;33.05;100890.09;5029811;28;20493;-58
2022/04/03 14:57:27;;;;;;;8.75;7.85;;;;;;;11.78;33.01;100896.13;5029767;28;20491;-57
2022/04/03 14:59:54;;;;;;;8.45;7.68;;;;;;;11.64;33.01;100895.84;5029370;28;20493;-57
2022/04/03 15:02:21;;;;;;;10.37;7.83;;;;;;;11.89;32.36;100901.03;5029651;28;20468;-58
2022/04/03 15:04:49;;;;;;;7.40;6.70;;;;;;;11.65;32.62;100899.34;5025731;28;20421;-61
2022/04/03 15:07:16;;;;;;;7.75;6.90;;;;;;;11.63;31.89;100903.97;5026558;28;20414;-57
2022/04/03 15:09:43;;;;;;;9.07;7.38;;;;;;;11.88;31.92;100899.38;5028770;28;20426;-58
2022/04/03 15:12:11;;;;;;;7.50;6.55;;;;;;;11.81;32.13;100915.19;5028979;28;20517;-57
2022/04/03 15:14:39;;;;;;;8.48;6.60;;;;;;;11.72;32.45;100915.41;5029237;28;20855;-59
2022/04/03 15:17:07;;;;;;;7.97;6.50;;;;;;;11.60;32.32;100922.94;5029026;28;20414;-58
2022/04/03 15:19:35;;;;;;;11.45;8.90;;;;;;;11.62;32.69;100921.75;5029228;28;20497;-57
2022/04/03 15:22:05;;;;;;;11.23;10.02;;;;;;;11.85;32.46;100935.09;5029242;28;20781;-58
2022/04/03 15:24:32;;;;;;;15.00;10.65;;;;;;;11.67;32.83;100935.34;5029371;28;20483;-57
2022/04/03 15:26:59;;;;;;;13.20;9.13;;;;;;;11.71;33.04;100938.47;5028879;28;20517;-58
2022/04/03 15:29:26;;;;;;;10.40;7.88;;;;;;;11.40;32.93;100933.94;5029037;28;20794;-58
2022/04/03 15:31:55;;;;;;;8.48;7.57;;;;;;;11.27;32.56;100942.44;5028723;28;20509;-57
2022/04/03 15:34:24;;;;;;;9.70;8.40;;;;;;;11.16;32.33;100950.72;5029314;28;20501;-57
2022/04/03 15:36:52;;;;;;;8.88;7.68;;;;;;;11.22;33.05;100949.25;5028980;28;20441;-57
2022/04/03 15:39:21;;;;;;;9.32;7.97;;;;;;;11.22;32.00;100950.06;5029111;28;20406;-58
2022/04/03 15:41:48;;;;;;;7.30;6.53;;;;;;;10.98;32.61;100960.69;5029024;28;20402;-57
2022/04/03 15:44:15;;;;;;;8.63;6.50;;;;;;;10.97;32.32;100959.03;5028567;28;20428;-57
2022/04/03 15:46:42;;;;;;;9.23;7.05;;;;;;;10.88;32.35;100969.63;5028677;28;20414;-58
2022/04/03 15:49:09;;;;;;;6.70;5.70;;;;;;;10.86;32.30;100974.28;5028869;28;20781;-57
2022/04/03 15:51:36;;;;;;;7.47;5.97;;;;;;;10.98;32.08;100973.94;5028998;28;20426;-57
2022/04/03 15:54:03;;;;;;;8.32;6.40;;;;;;;11.02;32.37;100981.41;5028726;28;20422;-57
2022/04/03 15:56:32;;;;;;;8.75;6.20;;;;;;;10.77;32.68;100977.06;5028885;28;20513;-57
2022/04/03 15:58:59;;;;;;;7.07;5.88;;;;;;;10.73;32.29;100981.06;5028708;28;20911;-57
2022/04/03 16:01:26;;;;;;;7.25;5.60;;;;;;;10.70;32.61;100984.88;5029108;28;20500;-57
2022/04/03 16:03:53;;;;;;;7.60;6.80;;;;;;;10.72;33.22;100977.59;5029238;28;20808;-58
2022/04/03 16:06:20;;;;;;;12.65;9.18;;;;;;;10.50;33.25;101002.91;5011775;28;20839;-57
2022/04/03 16:08:49;;;;;;;11.18;9.00;;;;;;;10.44;33.68;100992.94;5029261;28;20450;-57
2022/04/03 16:11:16;;;;;;;9.52;8.50;;;;;;;10.59;33.19;101003.72;5028810;28;20444;-58
2022/04/03 16:13:44;;;;;;;10.25;9.15;;;;;;;10.49;33.87;101003.88;5028918;28;20423;-57
2022/04/03 16:16:12;;;;;;;13.32;11.10;;;;;;;10.40;33.26;101013.63;5028828;28;20414;-57
2022/04/03 16:18:40;;;;;;;7.28;6.57;;;;;;;10.32;34.18;101006.50;5031975;28;20791;-57
2022/04/03 16:21:07;;;;;;;7.07;6.38;;;;;;;10.28;34.22;101022.84;5032997;28;21399;-57
2022/04/03 16:23:34;;;;;;;8.07;7.10;;;;;;;9.96;34.50;101021.72;5032422;28;20925;-57
2022/04/03 16:26:01;;;;;;;9.13;7.00;;;;;;;9.97;35.23;101028.69;5032412;28;20418;-57
2022/04/03 16:28:29;;;;;;;11.55;8.80;;;;;;;9.96;35.20;101032.31;5032656;28;20418;-57
2022/04/03 16:30:57;;;;;;;16.88;11.30;;;;;;;9.90;35.61;101039.09;5032301;28;20517;-57
2022/04/03 16:33:24;;;;;;;135.33;91.20;;;;;;;9.88;35.34;101048.16;5032568;28;20473;-58
2022/04/03 16:35:52;;;;;;;21.23;16.48;;;;;;;10.01;35.41;101053.88;5032288;28;20417;-57
2022/04/03 16:38:19;;;;;;;14.35;12.13;;;;;;;9.88;35.27;101059.56;5032251;28;20417;-57
2022/04/03 16:40:46;;;;;;;27.43;15.47;;;;;;;9.78;35.68;101066.81;5032497;28;20410;-57
2022/04/03 16:43:14;;;;;;;14.13;11.68;;;;;;;9.49;35.50;101080.31;5032287;28;20513;-57
2022/04/03 16:45:42;;;;;;;11.63;9.50;;;;;;;9.42;35.88;101082.78;5032084;28;20422;-57
2022/04/03 16:48:10;;;;;;;11.05;8.65;;;;;;;9.48;35.63;101084.78;5032202;28;20426;-57
2022/04/03 16:50:38;;;;;;;11.55;9.80;;;;;;;9.55;36.21;101087.66;5032279;28;20414;-57
2022/04/03 16:53:06;;;;;;;12.63;11.52;;;;;;;9.59;35.97;101096.13;5032247;28;20436;-57
2022/04/03 16:55:33;;;;;;;8.60;7.80;;;;;;;9.36;36.17;101093.94;5031997;28;20508;-57
2022/04/03 16:58:00;;;;;;;11.85;10.70;;;;;;;9.26;36.44;101103.81;5031875;28;20425;-57
2022/04/03 17:00:28;;;;;;;18.40;16.33;;;;;;;9.27;36.58;101116.03;5031941;28;20993;-56
2022/04/03 17:02:54;;;;;;;22.80;17.80;;;;;;;9.21;36.69;101112.19;5032312;28;20493;-57
2022/04/03 17:05:24;;;;;;;21.00;17.25;;;;;;;9.09;36.60;101110.72;5032246;28;20414;-57
2022/04/03 17:07:51;;;;;;;17.90;14.43;;;;;;;9.03;37.08;101114.81;5032070;28;20453;-56
2022/04/03 17:10:23;;;;;;;20.08;15.30;;;;;;;9.06;36.54;101113.69;5032192;28;20497;-56
2022/04/03 17:12:51;;;;;;;17.13;12.18;;;;;;;9.01;36.69;101123.91;5014395;28;20430;-57
2022/04/03 17:15:22;;;;;;;11.07;8.98;;;;;;;8.95;36.81;101114.75;5032157;28;20406;-57
2022/04/03 17:17:49;;;;;;;13.20;11.90;;;;;;;8.92;37.00;101126.44;5031698;28;20928;-57
2022/04/03 17:20:19;;;;;;;14.60;12.40;;;;;;;8.93;37.14;101129.91;5032109;28;20498;-57
2022/04/03 17:22:47;;;;;;;14.03;10.53;;;;;;;8.88;37.23;101133.00;5031724;28;20407;-57
2022/04/03 17:25:15;;;;;;;11.53;9.50;;;;;;;8.85;37.62;101148.34;5031920;28;20467;-56
2022/04/03 17:27:43;;;;;;;11.30;9.00;;;;;;;8.89;37.27;101153.16;5031970;28;20942;-57
2022/04/03 17:30:11;;;;;;;12.63;8.38;;;;;;;8.86;37.38;101155.28;5031465;28;21017;-57
2022/04/03 17:32:39;;;;;;;8.75;7.75;;;;;;;8.71;37.60;101162.88;5031394;28;20441;-58
2022/04/03 17:35:07;;;;;;;14.33;10.97;;;;;;;8.64;37.70;101162.63;5030909;28;20513;-57
2022/04/03 17:37:35;;;;;;;8.80;7.90;;;;;;;8.64;38.43;101165.25;5031536;28;20432;-58
2022/04/03 17:40:06;;;;;;;8.02;7.28;;;;;;;8.75;38.09;101164.22;5031389;28;20414;-57
2022/04/03 17:42:33;;;;;;;13.27;11.98;;;;;;;8.83;37.71;101177.56;5031466;28;20517;-57
2022/04/03 17:45:00;;;;;;;15.27;13.93;;;;;;;8.82;37.99;101183.81;5031139;28;20457;-57
2022/04/03 17:47:28;;;;;;;26.17;22.63;;;;;;;9.04;37.81;101189.69;5031402;28;20493;-57
2022/04/03 17:49:56;;;;;;;74.50;44.85;;;;;;;9.04;37.82;101189.69;5030956;28;20413;-57
2022/04/03 17:52:23;;;;;;;16.40;13.02;;;;;;;9.12;37.67;101200.38;5031194;28;20434;-58
2022/04/03 17:54:50;;;;;;;10.75;8.52;;;;;;;8.91;37.91;101196.19;5030868;28;20789;-57
2022/04/03 17:57:18;;;;;;;38.95;27.48;;;;;;;8.86;37.98;101206.34;5031151;28;20410;-56
2022/04/03 17:59:45;;;;;;;20.27;18.25;;;;;;;8.92;38.28;101207.56;5030821;28;20461;-57
2022/04/03 18:02:13;;;;;;;7.70;7.00;;;;;;;8.88;38.54;101220.25;5030719;28;20791;-58
2022/04/03 18:04:40;;;;;;;9.10;8.30;;;;;;;8.96;38.33;101212.41;5030486;28;20926;-56
2022/04/03 18:07:08;;;;;;;16.77;15.38;;;;;;;8.97;38.50;101211.44;5030905;28;20418;-57
2022/04/03 18:09:35;;;;;;;10.10;9.20;;;;;;;8.85;38.24;101219.72;5030671;28;20433;-57
2022/04/03 18:12:04;;;;;;;9.32;8.45;;;;;;;8.77;38.67;101225.75;5030454;28;20414;-56
2022/04/03 18:14:32;;;;;;;6.67;6.07;;;;;;;8.76;38.95;101232.81;5030271;28;21031;-58
2022/04/03 18:17:00;;;;;;;7.85;7.05;;;;;;;8.79;39.08;101237.81;5030413;28;20500;-56
2022/04/03 18:19:28;;;;;;;10.45;9.40;;;;;;;8.77;38.70;101254.81;5017071;28;20446;-56
2022/04/03 18:22:00;;;;;;;8.63;7.72;;;;;;;8.90;38.51;101259.78;5030049;28;20418;-56
2022/04/03 18:24:28;;;;;;;7.72;7.03;;;;;;;8.85;39.35;101270.78;5030515;28;20426;-56
2022/04/03 18:26:55;;;;;;;8.20;7.40;;;;;;;8.78;38.88;101265.22;5029938;28;21418;-56
2022/04/03 18:29:23;;;;;;;12.10;11.10;;;;;;;8.76;39.33;101276.94;5030102;28;20418;-56
2022/04/03 18:31:52;;;;;;;10.65;9.75;;;;;;;8.67;39.57;101267.22;5030680;28;20453;-57
2022/04/03 18:34:20;;;;;;;10.13;9.13;;;;;;;8.64;39.57;101275.44;5030313;28;20425;-56
2022/04/03 18:36:47;;;;;;;13.65;12.45;;;;;;;8.56;39.73;101282.25;5030086;28;20418;-57
2022/04/03 18:39:15;;;;;;;14.60;13.43;;;;;;;8.41;39.86;101283.66;5029086;28;20502;-57
2022/04/03 18:41:44;;;;;;;15.43;14.02;;;;;;;8.58;39.73;101285.59;5029331;28;21275;-57
2022/04/03 18:44:12;;;;;;;12.93;11.85;;;;;;;8.57;39.59;101296.31;5029822;28;20414;-57
2022/04/03 18:46:39;;;;;;;7.47;6.67;;;;;;;8.48;39.88;101300.66;5029833;28;20418;-57
2022/04/03 18:49:09;;;;;;;8.25;6.80;;;;;;;8.37;40.32;101306.91;5029180;28;20418;-57
2022/04/03 18:51:36;;;;;;;8.48;7.05;;;;;;;8.41;40.19;101318.00;5027047;28;20414;-59
2022/04/03 18:54:03;;;;;;;9.60;7.70;;;;;;;8.24;40.42;101315.09;5028154;28;21026;-56
2022/04/03 18:56:30;;;;;;;7.03;6.22;;;;;;;8.06;40.52;101324.69;5028156;28;20454;-57
2022/04/03 18:58:58;;;;;;;8.75;6.55;;;;;;;7.96;40.86;101326.47;5028924;28;20414;-58
2022/04/03 19:01:25;;;;;;;7.85;6.50;;;;;;;7.89;41.22;101339.41;5028732;28;20412;-57
2022/04/03 19:03:52;;;;;;;6.88;6.05;;;;;;;7.89;41.41;101347.31;5029052;28;20425;-57
2022/04/03 19:06:20;;;;;;;7.63;6.70;;;;;;;8.00;40.97;101351.66;5029143;28;20410;-57
2022/04/03 19:08:48;;;;;;;7.53;6.68;;;;;;;8.05;41.15;101360.00;5028750;28;21025;-57
2022/04/03 19:11:15;;;;;;;8.55;6.70;;;;;;;7.90;41.68;101361.34;5028937;28;20407;-57
2022/04/03 19:13:43;;;;;;;9.45;7.65;;;;;;;7.92;41.56;101367.31;5028527;28;20438;-57
2022/04/03 19:16:10;;;;;;;8.18;7.30;;;;;;;7.98;41.46;101364.97;5029201;28;20426;-56
2022/04/03 19:18:37;;;;;;;8.50;7.70;;;;;;;7.84;42.01;101366.19;5012977;28;20540;-56
2022/04/03 19:21:04;;;;;;;8.80;7.20;;;;;;;7.95;41.64;101367.88;5029404;28;20871;-57
2022/04/03 19:23:33;;;;;;;7.95;7.15;;;;;;;7.77;41.88;101370.34;5029308;28;20509;-57
2022/04/03 19:26:00;;;;;;;9.07;7.70;;;;;;;7.60;42.45;101369.22;5029382;28;20450;-57
2022/04/03 19:28:27;;;;;;;10.63;9.50;;;;;;;7.46;42.90;101380.13;5029367;28;20505;-57
2022/04/03 19:30:53;;;;;;;11.32;9.95;;;;;;;7.69;42.53;101380.75;5029368;28;20418;-57
2022/04/03 19:33:20;;;;;;;15.33;14.03;;;;;;;7.65;42.81;101374.91;5029109;28;20438;-57
2022/04/03 19:35:47;;;;;;;9.77;8.32;;;;;;;7.62;43.40;101374.34;5029519;28;20409;-59
2022/04/03 19:38:14;;;;;;;8.23;7.30;;;;;;;7.60;42.89;101378.94;5029221;28;20509;-57
2022/04/03 19:40:43;;;;;;;8.50;7.47;;;;;;;7.64;43.10;101377.69;5029162;28;21003;-56
2022/04/03 19:43:10;;;;;;;7.32;6.60;;;;;;;7.62;43.52;101374.34;5029440;28;20402;-57
2022/04/03 19:45:37;;;;;;;7.03;6.32;;;;;;;7.47;44.11;101382.63;5029423;28;20419;-56
2022/04/03 19:48:05;;;;;;;6.88;6.28;;;;;;;7.30;43.62;101380.63;5029484;28;20500;-56
2022/04/03 19:50:34;;;;;;;7.25;6.03;;;;;;;7.36;44.14;101389.78;5029208;28;20421;-55
2022/04/03 19:53:01;;;;;;;7.47;6.47;;;;;;;7.41;43.74;101387.59;5029087;28;20521;-58
2022/04/03 19:55:28;;;;;;;7.07;6.47;;;;;;;7.51;43.55;101393.75;5029570;28;20902;-59
2022/04/03 19:57:56;;;;;;;7.18;6.47;;;;;;;7.30;44.52;101392.97;5030075;28;20414;-59
2022/04/03 20:00:23;;;;;;;7.68;6.88;;;;;;;7.35;44.28;101398.69;5031734;28;20414;-57
2022/04/03 20:02:50;;;;;;;8.30;6.70;;;;;;;7.44;43.73;101401.34;5031141;28;20468;-57
2022/04/03 20:05:17;;;;;;;8.00;7.22;;;;;;;7.53;43.68;101399.72;5030532;28;20414;-57
2022/04/03 20:07:47;;;;;;;8.40;7.53;;;;;;;7.41;44.33;101408.69;5030932;28;20418;-57
2022/04/03 20:10:14;;;;;;;7.97;6.63;;;;;;;7.36;44.37;101411.72;5030619;28;20440;-57
2022/04/03 20:12:41;;;;;;;8.98;7.22;;;;;;;7.32;44.44;101415.59;5030648;28;20414;-56
2022/04/03 20:15:11;;;;;;;8.07;7.28;;;;;;;7.32;44.15;101422.69;5030501;28;20417;-58
2022/04/03 20:17:38;;;;;;;9.13;6.90;;;;;;;7.08;44.82;101434.34;5030998;28;20940;-59
2022/04/03 20:20:09;;;;;;;7.45;6.75;;;;;;;7.05;44.92;101435.44;5031015;28;20505;-58
2022/04/03 20:22:36;;;;;;;8.13;7.00;;;;;;;7.15;44.72;101442.56;5031291;28;20468;-56
2022/04/03 20:25:04;;;;;;;8.02;7.22;;;;;;;7.21;44.37;101442.06;5031204;28;20422;-57
2022/04/03 20:27:31;;;;;;;8.73;7.82;;;;;;;7.16;44.30;101444.25;5030630;28;20414;-57
2022/04/03 20:29:58;;;;;;;8.95;8.05;;;;;;;7.00;44.89;101442.06;5030666;28;20418;-57
2022/04/03 20:32:27;;;;;;;8.40;7.50;;;;;;;6.99;45.29;101443.88;5030420;28;20521;-57
2022/04/03 20:34:54;;;;;;;8.15;7.35;;;;;;;7.01;44.81;101441.94;5030458;28;20804;-57
2022/04/03 20:37:20;;;;;;;8.23;7.28;;;;;;;6.94;45.34;101448.69;5030876;28;20431;-58
2022/04/03 20:39:47;;;;;;;7.97;7.07;;;;;;;6.89;45.43;101451.69;5030538;28;20417;-58
2022/04/03 20:42:14;;;;;;;7.97;7.17;;;;;;;6.87;45.13;101452.78;5030984;28;20414;-57
2022/04/03 20:44:41;;;;;;;7.97;7.18;;;;;;;6.87;45.46;101461.53;5030890;28;20417;-57
2022/04/03 20:47:10;;;;;;;7.22;6.45;;;;;;;6.78;45.91;101456.19;5031079;28;20421;-58
2022/04/03 20:49:38;;;;;;;7.50;6.80;;;;;;;6.66;46.12;101463.28;5030773;28;20499;-57
2022/04/03 20:52:07;;;;;;;7.50;6.70;;;;;;;6.77;45.97;101467.69;5029294;28;20421;-58
2022/04/03 20:54:34;;;;;;;8.50;7.70;;;;;;;6.74;45.59;101471.41;5030621;28;20517;-57
2022/04/03 20:57:01;;;;;;;8.65;7.60;;;;;;;6.70;46.19;101475.28;5030247;28;20422;-58
2022/04/03 20:59:28;;;;;;;8.50;7.70;;;;;;;6.81;45.70;101480.50;5029337;28;20423;-57
2022/04/03 21:01:55;;;;;;;8.40;7.60;;;;;;;6.79;46.20;101473.66;5030577;28;20418;-58
2022/04/03 21:04:22;;;;;;;10.27;8.73;;;;;;;6.85;45.69;101474.00;5029530;28;20426;-57
2022/04/03 21:06:50;;;;;;;11.18;9.00;;;;;;;6.93;46.41;101478.63;5030154;28;20505;-57
2022/04/03 21:09:18;;;;;;;9.82;8.60;;;;;;;6.86;46.04;101482.72;5030300;28;20418;-57
2022/04/03 21:11:45;;;;;;;9.32;8.32;;;;;;;6.87;46.70;101484.41;5030296;28;20414;-57
2022/04/03 21:16:26;;;;;;;9.02;8.13;;;;;;;6.91;47.10;101488.47;5062556;28;20512;-57
2022/04/03 21:18:53;;;;;;;9.07;8.18;;;;;;;6.81;47.16;101492.84;5036951;28;20418;-57
2022/04/03 21:21:20;;;;;;;9.57;8.68;;;;;;;6.87;47.55;101489.69;5041685;28;20918;-58
2022/04/03 21:23:48;;;;;;;10.15;9.15;;;;;;;6.83;47.56;101493.53;5035427;28;20405;-58
2022/04/03 21:26:16;;;;;;;9.50;8.60;;;;;;;6.77;47.38;101494.88;5044112;28;20500;-57
2022/04/03 21:28:42;;;;;;;9.73;8.73;;;;;;;6.70;47.99;101493.72;5038231;28;20498;-57
2022/04/03 21:32:56;;;;;;;10.30;9.30;;;;;;;6.63;48.60;101497.81;5084748;27;20459;-56
2022/04/03 21:35:24;;;;;;;10.55;9.55;;;;;;;6.72;48.26;101504.09;5066346;28;20415;-57
2022/04/03 21:37:51;;;;;;;10.60;9.60;;;;;;;6.80;47.83;101502.53;5063993;28;20502;-57
2022/04/03 21:40:18;;;;;;;10.80;9.70;;;;;;;6.71;48.64;101513.81;5065193;28;20506;-56
2022/04/03 21:42:45;;;;;;;11.73;10.63;;;;;;;6.73;48.48;101511.88;5065250;28;20985;-57
2022/04/03 21:45:12;;;;;;;11.40;10.30;;;;;;;6.80;47.91;101515.69;5064012;28;20443;-56
2022/04/03 21:47:40;;;;;;;11.55;10.45;;;;;;;6.85;48.41;101515.34;5065177;28;20427;-54
2022/04/03 21:50:13;;;;;;;12.55;11.25;;;;;;;6.81;48.54;101522.66;5063575;28;20415;-60
2022/04/03 21:52:40;;;;;;;12.45;11.25;;;;;;;6.76;48.99;101518.72;5062026;28;20533;-57
2022/04/03 21:55:07;;;;;;;13.90;12.50;;;;;;;6.82;48.69;101521.69;5063617;28;20423;-59
2022/04/03 21:57:36;;;;;;;14.00;12.63;;;;;;;6.72;49.29;101520.78;5063236;28;20892;-56
2022/04/03 22:00:04;;;;;;;13.60;12.30;;;;;;;6.72;48.88;101523.41;5063397;28;20412;-58
2022/04/03 22:02:31;;;;;;;14.10;12.63;;;;;;;6.66;49.48;101530.03;5063853;28;20477;-57
2022/04/03 22:04:58;;;;;;;14.88;13.48;;;;;;;6.77;49.03;101523.88;5064909;28;20427;-58
2022/04/03 22:07:27;;;;;;;15.52;14.02;;;;;;;6.79;49.26;101534.25;5063982;28;20876;-57
2022/04/03 22:09:53;;;;;;;14.98;13.48;;;;;;;6.74;49.89;101536.47;5063907;28;20503;-58
2022/04/03 22:12:22;;;;;;;15.10;13.60;;;;;;;6.68;49.75;101541.25;5064610;28;20439;-60
2022/04/03 22:14:49;;;;;;;15.25;13.80;;;;;;;6.68;50.04;101543.03;5064295;28;20535;-60
2022/04/03 22:17:16;;;;;;;15.40;13.80;;;;;;;6.62;49.97;101544.38;5064059;28;20491;-58
2022/04/03 22:19:43;;;;;;;15.00;13.55;;;;;;;6.80;50.06;101547.31;5046544;28;20917;-58
2022/04/03 22:22:10;;;;;;;15.55;14.05;;;;;;;6.85;49.47;101550.44;5064232;28;20850;-59
2022/04/03 22:24:38;;;;;;;15.05;13.55;;;;;;;6.89;49.75;101553.66;5064191;28;20424;-58
2022/04/03 22:27:06;;;;;;;14.48;13.07;;;;;;;6.88;49.89;101558.09;5065037;28;20404;-57
2022/04/03 22:29:33;;;;;;;14.20;12.80;;;;;;;6.86;49.92;101559.16;5065381;28;20615;-57
2022/04/03 22:32:00;;;;;;;13.98;12.57;;;;;;;6.81;49.65;101558.72;5077498;28;20508;-59
2022/04/03 22:34:27;;;;;;;13.05;11.85;;;;;;;6.87;49.24;101564.31;5084273;28;20418;-59
2022/04/03 22:36:54;;;;;;;13.95;12.63;;;;;;;6.92;49.57;101565.75;5084116;28;20493;-58
2022/04/03 22:39:21;;;;;;;13.13;11.82;;;;;;;6.89;49.15;101559.75;5083725;28;20979;-57
2022/04/03 22:41:49;;;;;;;12.27;11.07;;;;;;;6.88;49.72;101558.09;5083748;28;20418;-57
2022/04/03 22:44:16;;;;;;;12.07;10.95;;;;;;;6.85;49.54;101566.22;5070400;28;20490;-56
2022/04/03 22:47:06;;;;;;;11.35;10.23;;;;;;;6.86;49.37;101559.16;5108197;27;20404;-57
2022/04/03 22:49:33;;;;;;;11.02;9.98;;;;;;;6.87;49.40;101568.75;5105325;28;20416;-57
2022/04/03 22:52:00;;;;;;;11.20;10.07;;;;;;;6.93;49.46;101575.31;5105641;28;20492;-58
2022/04/03 22:54:26;;;;;;;11.10;10.10;;;;;;;7.06;49.10;101576.84;5105502;28;20495;-60
2022/04/03 22:59:16;;;;;;;10.50;9.50;;;;;;;7.13;48.68;101587.72;5124819;27;20834;-58